パラオ の空港の天気 - METARとTAF

パラオ国際空港 ( PTRO / ROR ) - パラオ アイライ州
飛行場実況気象(Metar)
観測時間10/16 14:50 PWT (10/16 05:50 UTC)
風向・風速西 6m/s 瞬間風速8m/s
視程10km以上
天気現象
全天の8割程度の雲 雲底高度 490m
全天の8割程度の雲 雲底高度 3660m
全天の8割程度の雲 雲底高度 9140m
気温30℃
湿度70%
気圧1008hPa
METARPTRO 160550Z 27012G15KT 15SM BKN016TCU BKN120 BKN300 30/24 A2976 RMK TCU ALQDS
過去の天気等 Google飛行場航空写真 Wunderground天気予報

過去48時間のMETAR

飛行場予報(TAF)
発表時間: 10/16 14:29 PWT (10/16 05:29 UTC)
予報対象時間: 16日15時 PWT ~ 17日15時 PWT
風向・風速西 6m/s
視程10km以上
天気現象周辺でしゅう雨
全天の4割程度の雲 雲底高度 490m
全天の8割程度の雲 雲底高度 3660m
PTRO 160529Z 1606/1706 26011KT P6SM VCSH SCT016 BKN120